Duco, Kentucky
Current Conditions -  °F | °C
As of 3:33 PM on Saturday 25 Oct 2014 (Local Time) from KJKL Reporting Station
Broken Clouds Broken Clouds  
Wind Chill: 68°   Ceiling: 3300
Heat Index: 68°   Visibility: 10mi
Dew Point: 51°   Wind: 7mph
Humidity: 55%   Direction: NA
Pressure: 29.99"   Gusts: NA
Location:  37.7261°N, 83.0786°W
Report Text: KJKL 251933Z AUTO VRB06KT 10SM SCT024 BKN033 20/11 A2999 RMK AO2 T02000106
Loading
Personal Weather Stations






























Interactive Weather Map New forecast layout! Learn more

10-Day Weather Forecast

Advertisements
Track Severe Weather on mobile